Time;durP1;ratioP1;P1;durP2;ratioP2;P2;SDS_P1;SDS_P2;PMS_P1;PMS_P2;Temp;Humidity;BMP_temperature;BMP_pressure;BME280_temperature;BME280_humidity;BME280_pressure;Samples;Min_cycle;Max_cycle;Signal;HPM_P1;HPM_P2
2022/05/23 00:00:15;;;;;;;;;;;;;;;19.09;53.62;100600.19;5089665;28;20011;-68
2022/05/23 00:02:43;;;;;;;;;;;;;;;19.10;53.74;100604.56;5090012;28;19916;-68
2022/05/23 00:05:08;;;;;;;;;;;;;;;19.08;53.76;100608.41;5090636;28;19915;-68
2022/05/23 00:07:40;;;;;;;;;;;;;;;19.03;53.64;100600.78;5089870;28;20002;-68
2022/05/23 00:10:06;;;;;;;;;;;;;;;19.03;53.52;100606.16;5089889;28;19920;-68
2022/05/23 00:12:32;;;;;;;;;;;;;;;19.05;53.69;100614.97;5094943;28;20390;-68
2022/05/23 00:14:57;;;;;;;;;;;;;;;19.05;53.57;100606.88;5090571;28;19912;-68
2022/05/23 00:17:22;;;;;;;;;;;;;;;19.05;53.41;100612.25;5072804;28;19916;-68
2022/05/23 00:19:48;;;;;;;;;;;;;;;19.08;53.35;100605.72;5091012;28;20002;-68
2022/05/23 00:22:14;;;;;;;;;;;;;;;19.04;53.42;100591.72;5090169;28;19912;-68
2022/05/23 00:24:41;;;;;;;;;;;;;;;19.01;53.70;100590.16;5090117;28;20256;-68
2022/05/23 00:27:08;;;;;;;;;;;;;;;19.02;53.58;100585.63;5090966;28;19926;-68
2022/05/23 00:29:33;;;;;;;;;;;;;;;19.01;52.83;100574.00;5093990;28;19912;-68
2022/05/23 00:37:27;;;;;;;;;;;;;;;18.94;53.60;100594.50;5091936;28;19941;-68
2022/05/23 00:39:53;;;;;;;;;;;;;;;18.91;53.79;100593.97;5091778;28;20283;-68
2022/05/23 00:45:05;;;;;;;;;;;;;;;18.85;54.07;100584.66;5090709;28;21596;-68
2022/05/23 00:47:36;;;;;;;;;;;;;;;18.87;53.86;100579.13;5091302;28;19923;-68
2022/05/23 00:50:02;;;;;;;;;;;;;;;18.84;54.53;100564.94;5092921;28;20004;-68
2022/05/23 00:52:32;;;;;;;;;;;;;;;18.81;54.51;100557.19;5092201;28;19994;-69
2022/05/23 00:54:59;;;;;;;;;;;;;;;18.82;54.13;100556.19;5091383;28;20101;-69
2022/05/23 00:57:32;;;;;;;;;;;;;;;18.83;54.24;100557.03;5091316;28;19966;-69
2022/05/23 00:59:58;;;;;;;;;;;;;;;18.84;53.80;100546.09;5089388;28;20354;-69
2022/05/23 01:02:26;;;;;;;;;;;;;;;18.80;54.41;100546.56;5091580;28;19911;-68
2022/05/23 01:04:51;;;;;;;;;;;;;;;18.74;54.79;100552.59;5091353;28;20381;-68
2022/05/23 01:07:17;;;;;;;;;;;;;;;18.69;54.60;100555.72;5088242;28;20008;-69
2022/05/23 01:09:44;;;;;;;;;;;;;;;18.71;54.31;100563.66;5075774;28;19916;-68
2022/05/23 01:12:12;;;;;;;;;;;;;;;18.71;54.74;100564.50;5094760;28;19912;-68
2022/05/23 01:14:51;;;;;;;;;;;;;;;18.73;54.58;100575.09;5095235;28;19970;-68
2022/05/23 01:17:20;;;;;;;;;;;;;;;18.74;54.41;100579.53;5093660;28;19911;-69
2022/05/23 01:19:45;;;;;;;;;;;;;;;18.71;54.56;100575.28;5090931;28;19919;-68
2022/05/23 01:22:14;;;;;;;;;;;;;;;18.69;54.61;100569.19;5094084;28;19916;-68
2022/05/23 01:24:42;;;;;;;;;;;;;;;18.69;54.87;100571.03;5095557;28;20003;-69
2022/05/23 01:27:07;;;;;;;;;;;;;;;18.61;54.87;100553.78;5095643;28;19947;-68
2022/05/23 01:29:35;;;;;;;;;;;;;;;18.57;54.46;100552.41;5094996;28;19992;-69
2022/05/23 01:32:00;;;;;;;;;;;;;;;18.53;55.00;100550.19;5094540;28;20302;-69
2022/05/23 01:34:26;;;;;;;;;;;;;;;18.49;55.18;100552.34;5073883;28;19916;-69
2022/05/23 01:36:52;;;;;;;;;;;;;;;18.45;54.87;100542.91;5092841;28;19924;-69
2022/05/23 01:39:17;;;;;;;;;;;;;;;18.44;55.12;100538.50;5093440;28;20381;-68
2022/05/23 01:41:42;;;;;;;;;;;;;;;18.45;54.63;100539.38;5095201;28;19930;-68
2022/05/23 01:44:08;;;;;;;;;;;;;;;18.43;55.37;100538.66;5091982;28;19957;-68
2022/05/23 01:46:33;;;;;;;;;;;;;;;18.42;54.87;100540.50;5093252;28;19916;-68
2022/05/23 01:48:58;;;;;;;;;;;;;;;18.37;55.89;100550.91;5091002;28;20313;-69
2022/05/23 01:51:24;;;;;;;;;;;;;;;18.26;56.32;100551.13;5075944;28;19919;-69
2022/05/23 01:53:49;;;;;;;;;;;;;;;18.21;55.46;100548.91;5092751;28;19959;-69
2022/05/23 01:56:17;;;;;;;;;;;;;;;18.20;55.65;100543.66;5092825;28;20367;-68
2022/05/23 02:01:26;;;;;;;;;;;;;;;18.20;55.72;100533.75;5093265;28;20369;-69
2022/05/23 02:03:51;;;;;;;;;;;;;;;18.20;55.49;100531.03;5091794;28;19916;-68
2022/05/23 02:06:17;;;;;;;;;;;;;;;18.22;55.69;100525.53;5074775;28;19916;-69
2022/05/23 02:08:42;;;;;;;;;;;;;;;18.20;56.00;100522.97;5089797;28;19915;-68
2022/05/23 02:11:08;;;;;;;;;;;;;;;18.20;55.71;100522.97;5093387;28;19916;-68
2022/05/23 02:13:34;;;;;;;;;;;;;;;18.16;56.30;100526.97;5092527;28;20290;-69
2022/05/23 02:16:00;;;;;;;;;;;;;;;18.13;57.23;100525.44;5091437;28;19920;-68
2022/05/23 02:18:25;;;;;;;;;;;;;;;18.09;55.28;100529.44;5094281;28;19958;-68
2022/05/23 02:20:51;;;;;;;;;;;;;;;18.08;55.89;100527.75;5092597;28;19912;-68
2022/05/23 02:23:16;;;;;;;;;;;;;;;18.03;56.69;100523.81;5094017;28;19920;-68
2022/05/23 02:25:44;;;;;;;;;;;;;;;18.02;56.61;100527.50;5093093;28;19916;-69
2022/05/23 02:28:09;;;;;;;;;;;;;;;18.00;56.54;100522.31;5090260;28;19916;-68
2022/05/23 02:30:37;;;;;;;;;;;;;;;17.98;56.61;100515.38;5091344;28;19923;-68
2022/05/23 02:33:03;;;;;;;;;;;;;;;17.96;56.16;100511.97;5093261;28;19911;-68
2022/05/23 02:35:28;;;;;;;;;;;;;;;17.98;56.01;100513.53;5092116;28;19968;-68
2022/05/23 02:37:54;;;;;;;;;;;;;;;17.97;56.61;100509.16;5092464;28;19965;-68
2022/05/23 02:40:19;;;;;;;;;;;;;;;17.95;56.96;100508.44;5089863;28;19916;-68
2022/05/23 02:42:45;;;;;;;;;;;;;;;17.95;57.05;100499.53;5091016;28;19920;-68
2022/05/23 02:45:11;;;;;;;;;;;;;;;17.93;57.03;100491.59;5090939;28;19915;-68
2022/05/23 02:47:36;;;;;;;;;;;;;;;17.93;56.70;100488.91;5090762;28;19924;-68
2022/05/23 02:50:02;;;;;;;;;;;;;;;17.89;55.98;100476.78;5091765;28;19916;-68
2022/05/23 02:52:28;;;;;;;;;;;;;;;17.87;57.23;100476.06;5092411;28;19923;-68
2022/05/23 02:54:53;;;;;;;;;;;;;;;17.82;57.61;100465.75;5090130;28;20359;-68
2022/05/23 02:57:21;;;;;;;;;;;;;;;17.83;56.82;100469.31;5092002;28;19951;-68
2022/05/23 02:59:46;;;;;;;;;;;;;;;17.83;57.29;100445.09;5092301;28;19919;-69
2022/05/23 03:04:56;;;;;;;;;;;;;;;17.82;57.20;100432.63;5090786;28;19934;-68
2022/05/23 03:07:21;;;;;;;;;;;;;;;17.82;57.18;100427.25;5091952;28;19912;-68
2022/05/23 03:09:47;;;;;;;;;;;;;;;17.80;57.73;100411.28;5093114;28;20263;-68
2022/05/23 03:12:15;;;;;;;;;;;;;;;17.80;57.38;100407.75;5073874;28;20283;-68
2022/05/23 03:14:40;;;;;;;;;;;;;;;17.79;57.05;100406.88;5091485;28;20390;-68
2022/05/23 03:17:06;;;;;;;;;;;;;;;17.76;58.30;100401.78;5090391;28;20025;-68
2022/05/23 03:19:36;;;;;;;;;;;;;;;17.71;58.24;100404.94;5091969;28;19912;-68
2022/05/23 03:27:29;;;;;;;;;;;;;;;17.66;58.39;100391.09;5088809;28;20956;-68
2022/05/23 03:29:54;;;;;;;;;;;;;;;17.67;58.28;100378.50;5092316;28;19994;-68
2022/05/23 03:32:20;;;;;;;;;;;;;;;17.66;57.83;100374.97;5090918;28;19915;-68
2022/05/23 03:34:46;;;;;;;;;;;;;;;17.66;58.28;100376.81;5091326;28;19949;-68
2022/05/23 03:37:11;;;;;;;;;;;;;;;17.66;58.22;100368.75;5091642;28;19920;-68
2022/05/23 03:39:37;;;;;;;;;;;;;;;17.64;58.32;100365.34;5090696;28;19945;-68
2022/05/23 03:42:02;;;;;;;;;;;;;;;17.62;58.17;100359.31;5090858;28;20321;-68
2022/05/23 03:44:31;;;;;;;;;;;;;;;17.61;58.19;100358.44;5090516;28;19916;-68
2022/05/23 03:46:56;;;;;;;;;;;;;;;17.61;58.27;100352.22;5091195;28;19916;-68
2022/05/23 03:49:21;;;;;;;;;;;;;;;17.60;58.05;100354.06;5072926;28;19977;-68
2022/05/23 03:51:49;;;;;;;;;;;;;;;17.57;58.96;100343.63;5093253;28;19915;-68
2022/05/23 03:54:15;;;;;;;;;;;;;;;17.57;58.77;100343.63;5088841;28;19915;-68
2022/05/23 03:56:40;;;;;;;;;;;;;;;17.56;58.40;100341.94;5091241;28;19999;-68
2022/05/23 03:59:05;;;;;;;;;;;;;;;17.55;58.22;100347.47;5091195;28;19919;-68
2022/05/23 04:01:31;;;;;;;;;;;;;;;17.53;58.23;100342.25;5089771;28;20341;-68
2022/05/23 04:03:57;;;;;;;;;;;;;;;17.50;58.50;100331.81;5091027;28;19924;-68
2022/05/23 04:06:23;;;;;;;;;;;;;;;17.50;58.52;100334.50;5090340;28;19916;-68
2022/05/23 04:08:48;;;;;;;;;;;;;;;17.47;59.01;100330.28;5089498;28;20317;-68
2022/05/23 04:11:13;;;;;;;;;;;;;;;17.46;58.95;100341.16;5088192;28;20067;-68
2022/05/23 04:13:39;;;;;;;;;;;;;;;17.46;58.96;100327.72;5091144;28;19923;-68
2022/05/23 04:16:04;;;;;;;;;;;;;;;17.45;58.90;100313.44;5090627;28;20046;-68
2022/05/23 04:18:31;;;;;;;;;;;;;;;17.47;58.78;100316.81;5089796;28;19919;-68
2022/05/23 04:20:59;;;;;;;;;;;;;;;17.48;58.49;100310.44;5091727;28;19919;-68
2022/05/23 04:23:25;;;;;;;;;;;;;;;17.48;59.33;100313.13;5091389;28;19927;-68
2022/05/23 04:25:50;;;;;;;;;;;;;;;17.48;59.22;100309.59;5089907;28;19912;-68
2022/05/23 04:28:18;;;;;;;;;;;;;;;17.51;59.75;100314.66;5090012;28;19970;-68
2022/05/23 04:30:47;;;;;;;;;;;;;;;17.51;59.44;100313.81;5089900;28;19962;-68
2022/05/23 04:35:57;;;;;;;;;;;;;;;17.55;59.47;100304.44;5098661;28;20370;-68
2022/05/23 04:38:23;;;;;;;;;;;;;;;17.59;58.22;100309.38;5088391;28;19912;-68
2022/05/23 04:40:48;;;;;;;;;;;;;;;17.59;60.57;100308.50;5091893;28;19912;-68
2022/05/23 04:43:13;;;;;;;;;;;;;;;17.58;59.18;100298.75;5092699;28;19920;-68
2022/05/23 04:45:38;;;;;;;;;;;;;;;17.61;60.44;100293.06;5094598;28;19912;-68
2022/05/23 04:50:48;;;;;;;;;;;;;;;17.61;59.14;100293.91;5094244;28;19965;-68
2022/05/23 04:53:14;;;;;;;;;;;;;;;17.62;59.88;100294.78;5095112;28;20350;-68
2022/05/23 04:55:41;;;;;;;;;;;;;;;17.63;60.22;100283.00;5094689;28;20014;-68
2022/05/23 04:58:07;;;;;;;;;;;;;;;17.67;60.05;100282.50;5093556;28;19955;-68
2022/05/23 05:00:32;;;;;;;;;;;;;;;17.70;58.93;100286.75;5098526;28;19978;-68
2022/05/23 05:03:00;;;;;;;;;;;;;;;17.74;59.13;100285.44;5103854;28;19926;-68
2022/05/23 05:05:43;;;;;;;;;;;;;;;17.74;58.95;100282.75;5056181;28;19913;-68
2022/05/23 05:08:09;;;;;;;;;;;;;;;17.79;59.59;100274.22;5050261;28;20371;-68
2022/05/23 05:10:34;;;;;;;;;;;;;;;17.82;60.17;100281.97;5049618;28;20083;-68
2022/05/23 05:13:00;;;;;;;;;;;;;;;17.84;59.93;100279.97;5034476;28;19962;-68
2022/05/23 05:15:26;;;;;;;;;;;;;;;17.89;60.25;100264.22;5049666;28;19917;-68
2022/05/23 05:17:52;;;;;;;;;;;;;;;17.94;59.52;100253.81;5048382;28;19956;-69
2022/05/23 05:20:20;;;;;;;;;;;;;;;17.96;60.06;100257.19;5050156;28;19952;-68
2022/05/23 05:22:46;;;;;;;;;;;;;;;17.96;60.82;100245.59;5034730;28;19912;-68
2022/05/23 05:25:12;;;;;;;;;;;;;;;17.97;60.14;100240.06;5050848;28;19963;-68
2022/05/23 05:27:38;;;;;;;;;;;;;;;18.01;60.18;100249.50;5050908;28;20471;-68
2022/05/23 05:30:06;;;;;;;;;;;;;;;18.03;60.20;100233.16;5048407;28;20042;-68
2022/05/23 05:32:42;;;;;;;;;;;;;;;18.07;60.64;100231.88;5047791;28;19920;-68
2022/05/23 05:35:28;;;;;;;;;;;;;;;18.08;60.28;100228.16;5034041;28;20007;-68
2022/05/23 05:37:56;;;;;;;;;;;;;;;18.12;60.50;100227.69;5092320;28;19908;-69
2022/05/23 05:40:23;;;;;;;;;;;;;;;18.15;60.66;100219.28;5091796;28;20397;-68
2022/05/23 05:42:50;;;;;;;;;;;;;;;18.16;60.25;100210.19;5091551;28;19918;-68
2022/05/23 05:45:25;;;;;;;;;;;;;;;18.19;60.57;100214.41;5093742;28;20389;-68
2022/05/23 05:47:51;;;;;;;;;;;;;;;18.13;60.45;100188.16;5091431;28;19926;-68
2022/05/23 05:50:24;;;;;;;;;;;;;;;18.27;60.40;100198.31;5091919;28;19912;-68
2022/05/23 05:52:53;;;;;;;;;;;;;;;18.25;60.48;100196.78;5093142;28;19961;-68
2022/05/23 05:55:21;;;;;;;;;;;;;;;18.23;60.21;100199.63;5090481;28;19919;-68
2022/05/23 05:57:47;;;;;;;;;;;;;;;18.24;60.65;100197.78;5092258;28;19912;-68
2022/05/23 06:00:12;;;;;;;;;;;;;;;18.28;59.66;100194.59;5091263;28;19972;-68
2022/05/23 06:02:37;;;;;;;;;;;;;;;18.26;60.00;100196.59;5092123;28;19923;-68
2022/05/23 06:05:03;;;;;;;;;;;;;;;18.32;60.36;100198.66;5091656;28;19912;-68
2022/05/23 06:12:57;;;;;;;;;;;;;;;18.44;59.59;100195.66;5085185;28;19942;-68
2022/05/23 06:15:23;;;;;;;;;;;;;;;18.50;59.91;100197.69;5117815;27;19924;-68
2022/05/23 06:17:50;;;;;;;;;;;;;;;18.54;59.60;100182.91;5090144;28;19916;-68
2022/05/23 06:20:15;;;;;;;;;;;;;;;18.54;59.56;100185.59;5093995;28;19912;-68
2022/05/23 06:22:40;;;;;;;;;;;;;;;18.60;59.81;100174.16;5092602;28;19957;-68
2022/05/23 06:25:06;;;;;;;;;;;;;;;18.70;59.58;100174.00;5091714;28;19919;-68
2022/05/23 06:27:32;;;;;;;;;;;;;;;18.75;59.04;100167.13;5091940;28;20029;-68
2022/05/23 06:29:57;;;;;;;;;;;;;;;18.79;58.90;100165.78;5092994;28;19912;-68
2022/05/23 06:32:22;;;;;;;;;;;;;;;18.81;58.59;100155.69;5091512;28;19912;-68
2022/05/23 06:34:50;;;;;;;;;;;;;;;18.82;59.07;100159.22;5091986;28;20371;-68
2022/05/23 06:37:16;;;;;;;;;;;;;;;18.79;58.79;100157.69;5092740;28;19916;-68
2022/05/23 06:39:41;;;;;;;;;;;;;;;18.81;59.16;100168.31;5092252;28;19926;-68
2022/05/23 06:42:07;;;;;;;;;;;;;;;18.78;59.20;100163.28;5091364;28;19969;-68
2022/05/23 06:44:35;;;;;;;;;;;;;;;18.85;59.20;100161.56;5091016;28;19916;-68
2022/05/23 06:47:00;;;;;;;;;;;;;;;18.95;59.28;100161.44;5088488;28;20351;-69
2022/05/23 06:49:26;;;;;;;;;;;;;;;19.10;59.40;100158.91;5090871;28;19915;-69
2022/05/23 06:51:54;;;;;;;;;;;;;;;19.32;58.33;100160.91;5090732;28;19912;-69
2022/05/23 06:54:20;;;;;;;;;;;;;;;19.46;58.21;100162.06;5096423;28;19924;-69
2022/05/23 06:56:48;;;;;;;;;;;;;;;19.54;57.48;100158.53;5091919;28;19920;-69
2022/05/23 06:59:15;;;;;;;;;;;;;;;19.55;57.45;100169.13;5091745;28;19916;-69
2022/05/23 07:01:41;;;;;;;;;;;;;;;19.58;57.77;100165.25;5093167;28;19912;-69
2022/05/23 07:04:06;;;;;;;;;;;;;;;19.57;57.81;100167.09;5096504;28;20094;-69
2022/05/23 07:14:43;;;;;;;;;;;;;;;19.54;57.36;100156.66;5089937;28;19922;-69
2022/05/23 07:17:09;;;;;;;;;;;;;;;19.52;57.98;100161.38;5087955;28;19924;-68
2022/05/23 07:19:37;;;;;;;;;;;;;;;19.50;57.80;100156.16;5088087;28;19916;-69
2022/05/23 07:22:06;;;;;;;;;;;;;;;19.53;57.08;100155.00;5091701;28;19916;-69
2022/05/23 07:24:32;;;;;;;;;;;;;;;19.51;57.36;100155.16;5120110;27;19946;-69
2022/05/23 07:26:58;;;;;;;;;;;;;;;19.51;57.27;100157.84;5091254;28;19912;-69
2022/05/23 07:29:24;;;;;;;;;;;;;;;19.56;57.59;100160.03;5090992;28;19919;-69
2022/05/23 07:31:50;;;;;;;;;;;;;;;19.60;57.73;100169.47;5091227;28;19927;-69
2022/05/23 07:34:15;;;;;;;;;;;;;;;19.62;57.94;100166.56;5090865;28;20017;-69
2022/05/23 07:36:41;;;;;;;;;;;;;;;19.69;57.80;100168.44;5091157;28;19999;-70
2022/05/23 07:39:09;;;;;;;;;;;;;;;19.78;57.35;100163.88;5089397;28;20455;-69
2022/05/23 07:41:35;;;;;;;;;;;;;;;19.84;57.49;100160.47;5093434;28;20040;-69
2022/05/23 07:44:00;;;;;;;;;;;;;;;19.90;57.40;100151.69;5090779;28;20011;-69
2022/05/23 07:46:26;;;;;;;;;;;;;;;20.01;57.23;100149.63;5091120;28;19916;-69
2022/05/23 07:48:51;;;;;;;;;;;;;;;20.10;57.14;100140.47;5089832;28;20379;-69
2022/05/23 07:51:19;;;;;;;;;;;;;;;20.16;56.90;100140.59;5091347;28;19918;-69
2022/05/23 08:01:57;;;;;;;;;;;;;;;21.01;55.30;100139.72;5090271;28;20357;-69
2022/05/23 08:04:22;;;;;;;;;;;;;;;21.13;54.59;100142.00;5089493;28;19920;-69
2022/05/23 08:06:48;;;;;;;;;;;;;;;21.15;54.48;100129.13;5088324;28;19916;-69
2022/05/23 08:09:14;;;;;;;;;;;;;;;21.08;53.02;100124.44;5090133;28;20290;-69
2022/05/23 08:11:40;;;;;;;;;;;;;;;21.00;53.90;100119.13;5087772;28;19912;-69
2022/05/23 08:14:06;;;;;;;;;;;;;;;20.96;53.91;100109.69;5089680;28;19920;-69
2022/05/23 08:16:32;;;;;;;;;;;;;;;20.85;54.08;100104.72;5089848;28;19912;-69
2022/05/23 08:19:02;;;;;;;;;;;;;;;20.78;53.81;100110.00;5093557;28;20318;-69
2022/05/23 08:21:27;;;;;;;;;;;;;;;20.73;54.38;100104.31;5094133;28;19919;-69
2022/05/23 08:23:53;;;;;;;;;;;;;;;20.71;54.65;100100.97;5095322;28;20402;-69
2022/05/23 08:26:18;;;;;;;;;;;;;;;20.67;54.68;100102.31;5076538;28;20591;-69
2022/05/23 08:28:45;;;;;;;;;;;;;;;20.58;53.97;100098.84;5094709;28;20363;-69
2022/05/23 08:31:11;;;;;;;;;;;;;;;20.52;54.28;100104.97;5093849;28;20006;-69
2022/05/23 08:33:36;;;;;;;;;;;;;;;20.53;54.45;100097.69;5096137;28;20006;-69
2022/05/23 08:36:01;;;;;;;;;;;;;;;20.54;54.61;100091.28;5094945;28;20364;-69
2022/05/23 08:38:26;;;;;;;;;;;;;;;20.54;54.51;100083.19;5109549;28;19977;-69
2022/05/23 08:40:58;;;;;;;;;;;;;;;20.59;54.88;100067.28;5092526;28;19969;-69
2022/05/23 08:43:34;;;;;;;;;;;;;;;20.65;54.83;100069.25;5094895;28;19966;-69
2022/05/23 08:46:00;;;;;;;;;;;;;;;20.75;54.30;100066.28;5096706;28;19915;-69
2022/05/23 08:48:31;;;;;;;;;;;;;;;20.81;54.41;100065.56;5093803;28;19916;-68
2022/05/23 08:51:14;;;;;;;;;;;;;;;20.87;54.39;100062.97;5094926;28;19916;-69
2022/05/23 08:53:42;;;;;;;;;;;;;;;20.91;53.13;100052.63;5094734;28;20294;-69
2022/05/23 08:56:14;;;;;;;;;;;;;;;20.93;53.24;100061.41;5093539;28;19915;-69
2022/05/23 08:58:52;;;;;;;;;;;;;;;20.93;54.14;100047.88;5092719;28;19904;-69
2022/05/23 09:01:36;;;;;;;;;;;;;;;20.93;53.99;100050.56;5092606;28;19912;-69
2022/05/23 09:04:08;;;;;;;;;;;;;;;20.93;54.20;100050.56;5094245;28;20270;-69
2022/05/23 09:06:37;;;;;;;;;;;;;;;20.97;53.80;100041.09;5089420;28;19914;-69
2022/05/23 09:09:10;;;;;;;;;;;;;;;20.96;52.84;100031.28;5093357;28;19930;-69
2022/05/23 09:11:59;;;;;;;;;;;;;;;20.96;53.35;100028.59;5093319;28;20286;-68
2022/05/23 09:14:24;;;;;;;;;;;;;;;21.00;53.62;100029.91;5093179;28;19922;-69
2022/05/23 09:16:51;;;;;;;;;;;;;;;21.06;54.62;100029.16;5096089;28;19953;-69
2022/05/23 09:19:19;;;;;;;;;;;;;;;21.08;54.37;100027.09;5093967;28;20451;-69
2022/05/23 09:24:51;;;;;;;;;;;;;;;20.99;54.01;100021.97;5093740;28;19942;-69
2022/05/23 09:27:19;;;;;;;;;;;;;;;20.96;54.24;100012.34;5093721;28;20397;-69
2022/05/23 09:29:52;;;;;;;;;;;;;;;20.93;54.50;100012.72;5092527;28;19995;-69
2022/05/23 09:32:19;;;;;;;;;;;;;;;20.97;55.23;100002.38;5093582;28;19912;-69
2022/05/23 09:34:47;;;;;;;;;;;;;;;21.04;54.78;100006.88;5093819;28;20307;-69
2022/05/23 09:37:23;;;;;;;;;;;;;;;21.18;54.45;99993.53;5093934;28;20450;-69
2022/05/23 09:39:50;;;;;;;;;;;;;;;21.38;54.01;99978.44;5093379;28;19918;-70
2022/05/23 09:48:00;;;;;;;;;;;;;;;21.75;53.02;99960.38;5094616;28;19961;-70
2022/05/23 09:50:25;;;;;;;;;;;;;;;21.80;52.28;99967.94;5093601;28;19920;-69
2022/05/23 09:52:56;;;;;;;;;;;;;;;21.75;52.68;99961.19;5093835;28;19965;-69
2022/05/23 09:55:39;;;;;;;;;;;;;;;21.91;52.98;99948.44;5092013;28;19919;-69
2022/05/23 09:58:06;;;;;;;;;;;;;;;22.16;52.99;99949.75;5092697;28;19916;-70
2022/05/23 10:00:35;;;;;;;;;;;;;;;22.39;52.09;99936.00;5093524;28;19934;-69
2022/05/23 10:03:08;;;;;;;;;;;;;;;22.59;52.18;99938.03;5092980;28;19920;-69
2022/05/23 10:05:36;;;;;;;;;;;;;;;22.80;51.88;99929.84;5093706;28;19912;-69
2022/05/23 10:08:06;;;;;;;;;;;;;;;23.05;51.52;99930.22;5092645;28;19912;-70
2022/05/23 10:10:36;;;;;;;;;;;;;;;23.28;49.92;99923.66;5091056;28;20323;-70
2022/05/23 10:13:19;;;;;;;;;;;;;;;23.44;49.44;99917.03;5093249;28;20383;-70
2022/05/23 10:15:46;;;;;;;;;;;;;;;23.65;49.40;99919.63;5091929;28;19912;-69
2022/05/23 10:18:17;;;;;;;;;;;;;;;23.85;48.65;99924.25;5093695;28;19919;-70
2022/05/23 10:20:43;;;;;;;;;;;;;;;24.02;48.03;99930.97;5093747;28;20367;-69
2022/05/23 10:23:15;;;;;;;;;;;;;;;24.19;48.08;99929.53;5093588;28;19915;-69
2022/05/23 10:26:00;;;;;;;;;;;;;;;24.31;46.59;99929.75;5093025;28;19912;-69
2022/05/23 10:28:38;;;;;;;;;;;;;;;24.46;46.22;99933.13;5092765;28;19919;-69
2022/05/23 10:31:15;;;;;;;;;;;;;;;24.62;47.15;99925.56;5092717;28;20324;-70
2022/05/23 10:33:42;;;;;;;;;;;;;;;24.76;47.62;99923.66;5092746;28;19961;-70
2022/05/23 10:36:10;;;;;;;;;;;;;;;24.98;47.32;99921.53;5093468;28;19920;-70
2022/05/23 10:44:34;;;;;;;;;;;;;;;25.46;42.86;99900.22;5090140;28;20007;-70
2022/05/23 10:47:17;;;;;;;;;;;;;;;25.42;43.95;99879.09;5092217;28;19920;-70
2022/05/23 10:50:05;;;;;;;;;;;;;;;25.44;42.41;99876.97;5090874;28;19915;-70
2022/05/23 10:52:49;;;;;;;;;;;;;;;25.26;40.34;99873.09;5092600;28;19916;-70
2022/05/23 10:55:17;;;;;;;;;;;;;;;25.32;41.64;99865.94;5091978;28;19912;-69
2022/05/23 10:57:50;;;;;;;;;;;;;;;25.57;42.54;99866.84;5093530;28;20264;-69
2022/05/23 11:00:18;;;;;;;;;;;;;;;25.76;41.77;99866.94;5090926;28;20298;-69
2022/05/23 11:02:55;;;;;;;;;;;;;;;26.03;43.12;99860.28;5090675;28;19911;-70
2022/05/23 11:05:31;;;;;;;;;;;;;;;26.22;41.15;99857.59;5091060;28;20387;-70
2022/05/23 11:08:10;;;;;;;;;;;;;;;26.52;39.82;99843.28;5093323;28;19970;-70
2022/05/23 11:10:53;;;;;;;;;;;;;;;26.68;41.10;99826.31;5091901;28;20334;-71
2022/05/23 11:13:24;;;;;;;;;;;;;;;26.80;38.87;99808.13;5091681;28;19912;-70
2022/05/23 11:15:49;;;;;;;;;;;;;;;26.96;38.91;99802.03;5090399;28;20310;-70
2022/05/23 11:18:26;;;;;;;;;;;;;;;26.96;39.77;99793.84;5092924;28;19912;-70
2022/05/23 11:20:56;;;;;;;;;;;;;;;27.00;37.91;99787.91;5091922;28;20290;-70
2022/05/23 11:23:28;;;;;;;;;;;;;;;26.91;36.95;99784.66;5091228;28;20294;-71
2022/05/23 11:25:58;;;;;;;;;;;;;;;26.73;36.94;99780.91;5090721;28;19956;-70
2022/05/23 11:34:01;;;;;;;;;;;;;;;26.43;37.91;99763.63;5092304;28;19999;-70
2022/05/23 11:36:56;;;;;;;;;;;;;;;26.65;37.18;99758.56;5092102;28;19920;-70
2022/05/23 11:39:38;;;;;;;;;;;;;;;26.71;37.92;99768.56;5091187;28;19916;-70
2022/05/23 11:42:12;;;;;;;;;;;;;;;26.61;36.94;99762.81;5093024;28;19916;-70
2022/05/23 11:44:44;;;;;;;;;;;;;;;26.47;39.01;99760.22;5091248;28;19930;-70
2022/05/23 11:47:13;;;;;;;;;;;;;;;26.34;37.71;99752.19;5091455;28;19919;-69
2022/05/23 11:49:40;;;;;;;;;;;;;;;26.23;37.90;99759.22;5091489;28;19912;-70
2022/05/23 11:52:14;;;;;;;;;;;;;;;26.29;37.50;99744.66;5091461;28;19920;-70
2022/05/23 11:54:40;;;;;;;;;;;;;;;26.28;36.49;99736.72;5089811;28;20321;-70
2022/05/23 11:57:05;;;;;;;;;;;;;;;26.00;38.02;99734.50;5090309;28;19969;-70
2022/05/23 11:59:30;;;;;;;;;;;;;;;25.81;38.96;99731.72;5091249;28;19920;-70
2022/05/23 12:02:11;;;;;;;;;;;;;;;25.72;38.56;99732.25;5092026;28;19918;-70
2022/05/23 12:04:49;;;;;;;;;;;;;;;25.58;38.47;99726.91;5091329;28;19923;-70
2022/05/23 12:07:33;;;;;;;;;;;;;;;25.45;39.68;99726.19;5091472;28;19912;-70
2022/05/23 12:10:17;;;;;;;;;;;;;;;25.34;39.45;99727.72;5089549;28;19934;-70
2022/05/23 12:12:44;;;;;;;;;;;;;;;25.26;39.47;99728.81;5094468;28;20010;-71
2022/05/23 12:15:11;;;;;;;;;;;;;;;25.16;40.01;99728.47;5089651;28;19912;-70
2022/05/23 12:17:36;;;;;;;;;;;;;;;25.09;39.64;99719.47;5091350;28;19994;-70
2022/05/23 12:20:06;;;;;;;;;;;;;;;25.09;40.47;99716.75;5091072;28;19991;-71
2022/05/23 12:22:32;;;;;;;;;;;;;;;25.10;40.87;99719.28;5091318;28;20003;-70
2022/05/23 12:25:09;;;;;;;;;;;;;;;25.07;40.30;99717.00;5090706;28;19920;-70
2022/05/23 12:27:37;;;;;;;;;;;;;;;25.05;41.34;99716.38;5089981;28;19912;-70
2022/05/23 12:30:19;;;;;;;;;;;;;;;24.98;40.87;99718.31;5091011;28;19919;-70
2022/05/23 12:32:49;;;;;;;;;;;;;;;25.02;41.32;99705.09;5092364;28;20328;-70
2022/05/23 12:35:41;;;;;;;;;;;;;;;24.99;41.23;99706.38;5065516;28;19912;-70
2022/05/23 12:38:20;;;;;;;;;;;;;;;24.97;41.42;99699.47;5067276;28;19924;-70
2022/05/23 12:41:04;;;;;;;;;;;;;;;25.00;41.56;99693.59;5068770;28;19912;-70
2022/05/23 12:43:29;;;;;;;;;;;;;;;24.99;41.43;99683.78;5068130;28;19920;-70
2022/05/23 12:46:09;;;;;;;;;;;;;;;25.01;40.79;99677.06;5068994;28;20386;-70
2022/05/23 12:48:40;;;;;;;;;;;;;;;24.92;41.02;99672.94;5067851;28;19923;-70
2022/05/23 12:51:09;;;;;;;;;;;;;;;24.85;41.08;99661.25;5068595;28;19913;-71
2022/05/23 12:53:40;;;;;;;;;;;;;;;24.84;41.17;99660.44;5051267;28;19946;-70
2022/05/23 12:56:24;;;;;;;;;;;;;;;24.78;40.71;99661.31;5068600;28;19963;-70
2022/05/23 12:59:05;;;;;;;;;;;;;;;24.76;41.91;99660.69;5051276;28;19916;-70
2022/05/23 13:01:33;;;;;;;;;;;;;;;24.71;41.90;99652.38;5068592;28;20286;-70
2022/05/23 13:04:07;;;;;;;;;;;;;;;24.68;41.62;99650.09;5069762;28;19917;-70
2022/05/23 13:06:37;;;;;;;;;;;;;;;24.65;41.65;99648.63;5084827;28;19912;-70
2022/05/23 13:09:11;;;;;;;;;;;;;;;24.57;42.00;99643.44;5095236;28;19938;-70
2022/05/23 13:11:43;;;;;;;;;;;;;;;24.59;42.44;99635.91;5093058;28;20006;-70
2022/05/23 13:14:09;;;;;;;;;;;;;;;24.54;42.60;99633.00;5094133;28;19943;-70
2022/05/23 13:16:37;;;;;;;;;;;;;;;24.48;43.04;99634.69;5094243;28;20004;-70
2022/05/23 13:22:05;;;;;;;;;;;;;;;24.24;44.24;99636.25;5094188;28;19919;-70
2022/05/23 13:24:49;;;;;;;;;;;;;;;24.23;43.92;99634.56;5092376;28;19923;-70
2022/05/23 13:27:19;;;;;;;;;;;;;;;24.24;44.95;99635.44;5093759;28;19919;-70
2022/05/23 13:29:49;;;;;;;;;;;;;;;24.27;45.11;99643.16;5093881;28;19981;-70
2022/05/23 13:32:17;;;;;;;;;;;;;;;24.31;44.92;99636.22;5093876;28;20256;-70
2022/05/23 13:34:43;;;;;;;;;;;;;;;24.23;47.35;99629.13;5096952;28;20347;-70
2022/05/23 13:37:12;;;;;;;;;;;;;;;24.19;48.22;99627.09;5093893;28;19912;-70
2022/05/23 13:39:44;;;;;;;;;;;;;;;24.06;48.17;99614.41;5096051;28;19920;-70
2022/05/23 13:42:17;;;;;;;;;;;;;;;23.95;47.91;99606.91;5088632;28;20007;-70
2022/05/23 13:44:42;;;;;;;;;;;;;;;23.95;48.76;99599.59;5096251;28;20311;-70
2022/05/23 13:47:10;;;;;;;;;;;;;;;24.09;49.46;99604.97;5093464;28;19954;-70
2022/05/23 13:49:39;;;;;;;;;;;;;;;24.10;48.68;99607.47;5095275;28;20424;-70
2022/05/23 13:52:10;;;;;;;;;;;;;;;24.00;49.20;99605.22;5093210;28;19911;-70
2022/05/23 13:54:38;;;;;;;;;;;;;;;24.00;49.51;99607.06;5092654;28;20393;-70
2022/05/23 13:57:09;;;;;;;;;;;;;;;23.86;49.71;99603.59;5092367;28;20439;-70